Home > Products > Valid Products > MTR

000
SAUS46 KSGX 161857
MTRSDM
METAR KSDM 161853Z 00000KT 8SM CLR 19/11 A2985 RMK AO2 SLP104
T01940106





000
SAUS46 KSGX 161853
MTRCZZ
METAR KCZZ 161852Z AUTO 21017KT 23/02 A2981 RMK AO1 SLP073 T02280017





000
SAUS46 KSGX 161852
MTRSAN
METAR KSAN 161851Z 19006KT 10SM FEW017 17/10 A2987 RMK AO2 SLP115
T01720100





000
SAUS46 KSGX 161757
MTRSDM
METAR KSDM 161753Z VRB04KT 6SM HZ CLR 18/11 A2987 RMK AO2 SLP113
T01780106 10183 20128 53004





000
SAUS46 KSGX 161753
MTRCZZ
METAR KCZZ 161752Z AUTO 22013KT 23/01 A2984 RMK AO1 SLP079 T02280006
10228 20011 55002





000
SAUS46 KSGX 161752
MTRSAN
METAR KSAN 161751Z 23005KT 10SM SCT017 16/10 A2990 RMK AO2 SLP124
T01610100 10167 20150 51006





000
SAUS46 KSGX 161745
MTRSAN
SPECI KSAN 161744Z COR 20003KT 10SM SCT017 16/10 A2990 RMK AO2





000
SAUS46 KSGX 161658
MTRSDM
METAR KSDM 161653Z 24005KT 4SM HZ CLR 17/11 A2987 RMK AO2 SLP113
T01670106





000
SAUS46 KSGX 161653
MTRSAN
METAR KSAN 161651Z 23006KT 10SM BKN015 16/10 A2990 RMK AO2 SLP123
T01560100





000
SAUS46 KSGX 161653
MTRCZZ
METAR KCZZ 161652Z AUTO 20009KT 21/00 A2983 RMK AO1 SLP077 T02110000





000
SAUS46 KSGX 161611
MTRSDM
SPECI KSDM 161606Z 00000KT 5SM HZ SCT012 16/11 A2986 RMK AO2
T01560106





000
SAUS46 KSGX 161610
MTRSAN
SPECI KSAN 161609Z 19005KT 10SM OVC015 16/11 A2988 RMK AO2





000
SAUS46 KSGX 161557
MTRSDM
METAR KSDM 161553Z 00000KT 5SM HZ BKN012 15/11 A2987 RMK AO2 SLP111
T01500106





000
SAUS46 KSGX 161553
MTRCZZ
METAR KCZZ 161552Z AUTO 00000KT 17/01 A2984 RMK AO1 SLP079 T01670011





000
SAUS46 KSGX 161552
MTRSAN
METAR KSAN 161551Z 18006KT 10SM OVC014 16/11 A2989 RMK AO2 SLP120
T01560106





000
SAUS46 KSGX 161505
MTRSDM
SPECI KSDM 161501Z 00000KT 5SM HZ OVC010 13/11 A2986 RMK AO2
T01330106





000
SAUS46 KSGX 161457
MTRSDM
METAR KSDM 161453Z 13003KT 5SM HZ OVC009 14/11 A2986 RMK AO2 SLP110
T01390106 50005





000
SAUS46 KSGX 161453
MTRCZZ
METAR KCZZ 161452Z AUTO 00000KT 11/01 A2984 RMK AO1 SLP084 T01110006
52004





000
SAUS46 KSGX 161452
MTRSAN
METAR KSAN 161451Z 19006KT 10SM OVC014 16/11 A2988 RMK AO2 SLP117
T01560106 51004





000
SAUS46 KSGX 161357
MTRSDM
METAR KSDM 161353Z AUTO 00000KT 4SM BR OVC008 13/11 A2986 RMK AO2
SLP111 T01280106





000
SAUS46 KSGX 161353
MTRCZZ
METAR KCZZ 161352Z AUTO 06006KT 04/M02 A2984 RMK AO1 SLP086
T00391022





000
SAUS46 KSGX 161352
MTRSAN
METAR KSAN 161351Z 17005KT 10SM OVC014 15/11 A2988 RMK AO2 SLP117
T01500106 $





000
SAUS46 KSGX 161320
MTRSDM
SPECI KSDM 161316Z AUTO 00000KT 5SM HZ OVC008 13/11 A2986 RMK AO2
T01330106





000
SAUS46 KSGX 161257
MTRSDM
METAR KSDM 161253Z AUTO 00000KT 5SM BR OVC007 13/11 A2986 RMK AO2
SLP108 T01280106





000
SAUS46 KSGX 161253
MTRCZZ
METAR KCZZ 161252Z AUTO 07004KT 03/M02 A2983 RMK AO1 SLP080
T00281022





000
SAUS46 KSGX 161252
MTRSAN
METAR KSAN 161251Z 00000KT 10SM OVC012 15/11 A2988 RMK AO2 SLP116
T01500106 $





000
SAUS46 KSGX 161157
MTRSDM
METAR KSDM 161153Z AUTO 00000KT 5SM BR OVC007 13/11 A2985 RMK AO2
SLP104 T01280106 10144 20128 58008





000
SAUS46 KSGX 161153
MTRCZZ
METAR KCZZ 161152Z AUTO 04006KT 02/M02 A2983 RMK AO1 SLP080
T00171017 10094 20017 56011





000
SAUS46 KSGX 161152
MTRSAN
METAR KSAN 161151Z 22004KT 10SM OVC012 15/11 A2987 RMK AO2 SLP113
T01500111 10161 20144 58008 $





000
SAUS46 KSGX 161118
MTRSDM
SPECI KSDM 161114Z AUTO 00000KT 4SM HZ OVC007 13/11 A2986 RMK AO2
T01330106





000
SAUS46 KSGX 161057
MTRSDM
METAR KSDM 161053Z AUTO 23004KT 6SM BR OVC008 13/11 A2986 RMK AO2
SLP108 T01280106





000
SAUS46 KSGX 161053
MTRCZZ
METAR KCZZ 161052Z AUTO 05005KT 03/M01 A2984 RMK AO1 SLP082
T00331011





000
SAUS46 KSGX 161052
MTRSAN
METAR KSAN 161051Z 19006KT 10SM OVC012 15/11 A2988 RMK AO2 SLP116
T01500111 $





000
SAUS46 KSGX 161037
MTRSDM
SPECI KSDM 161033Z AUTO 00000KT 5SM BR OVC007 13/11 A2986 RMK AO2
T01280111





000
SAUS46 KSGX 160957
MTRSDM
METAR KSDM 160953Z AUTO 24004KT 7SM OVC008 13/11 A2986 RMK AO2
SLP108 T01330106





000
SAUS46 KSGX 160953
MTRCZZ
METAR KCZZ 160952Z AUTO 04004KT 03/M01 A2985 RMK AO1 SLP086
T00331006





000
SAUS46 KSGX 160952
MTRSAN
METAR KSAN 160951Z 23003KT 10SM OVC012 15/11 A2988 RMK AO2 SLP119
T01500106 $





000
SAUS46 KSGX 160857
MTRSDM
METAR KSDM 160853Z AUTO 00000KT 7SM OVC009 13/11 A2987 RMK AO2
SLP112 T01330111 58011





000
SAUS46 KSGX 160853
MTRCZZ
METAR KCZZ 160852Z AUTO 05006KT 04/01 A2986 RMK AO1 SLP089 T00440011
58010





000
SAUS46 KSGX 160852
MTRSAN
METAR KSAN 160851Z 19004KT 10SM OVC012 15/11 A2989 RMK AO2 SLP121
T01500111 58010 $





000
SAUS46 KSGX 160757
MTRSDM
METAR KSDM 160753Z AUTO 00000KT 8SM OVC009 14/11 A2989 RMK AO2
SLP120 T01390111 402060117





000
SAUS46 KSGX 160753
MTRCZZ
METAR KCZZ 160752Z AUTO 08005KT 06/03 A2989 RMK AO1 SLP095 T00560028
402780033





000
SAUS46 KSGX 160752
MTRSAN
METAR KSAN 160751Z 18004KT 10SM OVC014 16/11 A2991 RMK AO2 SLP127
T01560111 402060100 $





000
SAUS46 KSGX 160750
MTRSDM
SPECI KSDM 160746Z AUTO 00000KT 9SM OVC009 14/11 A2989 RMK AO2
T01390111





000
SAUS46 KSGX 160715
MTRSDM
SPECI KSDM 160711Z AUTO 00000KT 9SM BKN010 13/11 A2989 RMK AO2
T01330111





000
SAUS46 KSGX 160704
MTRSDM
SPECI KSDM 160700Z AUTO 00000KT 9SM SCT010 13/11 A2989 RMK AO2
T01330106





000
SAUS46 KSGX 160653
MTRCZZ
METAR KCZZ 160652Z AUTO 05006KT 07/03 A2988 RMK AO1 SLP094 T00720028





000
SAUS46 KSGX 160652
MTRSAN
METAR KSAN 160651Z 21003KT 10SM OVC014 16/11 A2991 RMK AO2 SLP128
T01560111 $





000
SAUS46 KSGX 160627
MTRSAN
SPECI KSAN 160625Z 21006KT 10SM OVC014 16/11 A2991 RMK AO2 $





000
SAUS46 KSGX 160557
MTRSDM
METAR KSDM 160553Z AUTO 16004KT 10SM OVC010 14/11 A2990 RMK AO2
SLP123 T01390111 10194 20139 50006





000
SAUS46 KSGX 160554
MTRCZZ
METAR KCZZ 160552Z AUTO 01004KT 08/03 A2990 RMK AO1 SLP098 T00830033
10256 20078 51012





000
SAUS46 KSGX 160552
MTRSAN
METAR KSAN 160551Z 21005KT 10SM BKN016 BKN200 16/11 A2992 RMK AO2
SLP131 T01610111 10189 20161 50008 $





000
SAUS46 KSGX 160535
MTRSAN
SPECI KSAN 160534Z 22005KT 10SM BKN016 BKN200 16/11 A2992 RMK AO2 $





000
SAUS46 KSGX 160457
MTRSDM
METAR KSDM 160453Z AUTO 00000KT 10SM OVC010 14/12 A2992 RMK AO2
SLP127 T01440117





000
SAUS46 KSGX 160455
MTRSAN
SPECI KSAN 160454Z 00000KT 10SM SCT014 BKN200 16/11 A2993 RMK AO2 $





000
SAUS46 KSGX 160454
MTRCZZ
METAR KCZZ 160452Z AUTO 02003KT 09/03 A2989 RMK AO1 SLP098 T00940033





000
SAUS46 KSGX 160452
MTRSAN
METAR KSAN 160451Z 00000KT 10SM BKN014 BKN200 16/11 A2993 RMK AO2
SLP133 T01610111 $





000
SAUS46 KSGX 160357
MTRSDM
METAR KSDM 160353Z 00000KT 10SM OVC008 14/12 A2991 RMK AO2 SLP125
T01440117





000
SAUS46 KSGX 160354
MTRCZZ
METAR KCZZ 160352Z AUTO 21005KT 15/05 A2989 RMK AO1 SLP093 T01500050





000
SAUS46 KSGX 160352
MTRSAN
METAR KSAN 160351Z 27003KT 10SM OVC014 16/12 A2992 RMK AO2 SLP132
T01610117 $





000
SAUS46 KSGX 160312
MTRSDM
SPECI KSDM 160308Z 31005KT 10SM OVC008 14/12 A2989 RMK AO2 T01440117





000
SAUS46 KSGX 160257
MTRSDM
METAR KSDM 160253Z 29004KT 10SM OVC007 14/12 A2988 RMK AO2 SLP117
T01440117 53010





000
SAUS46 KSGX 160254
MTRCZZ
METAR KCZZ 160252Z AUTO 23010KT 17/06 A2986 RMK AO1 SLP089 T01670056
53002





000
SAUS46 KSGX 160253
MTRSAN
METAR KSAN 160251Z 32005KT 10SM OVC012 16/12 A2990 RMK AO2 SLP123
T01610117 53009 $





000
SAUS46 KSGX 160250
MTRSDM
SPECI KSDM 160246Z 29004KT 10SM OVC007 14/12 A2988 RMK AO2 T01440117





000
SAUS46 KSGX 160230
MTRSDM
SPECI KSDM 160226Z 28006KT 10SM BKN008 14/12 A2987 RMK AO2 T01440117





000
SAUS46 KSGX 160214
MTRSDM
SPECI KSDM 160210Z 27006KT 10SM FEW008 14/12 A2986 RMK AO2 T01440117





000
SAUS46 KSGX 160210
MTRSAN
SPECI KSAN 160209Z 29006KT 10SM BKN010 BKN200 17/12 A2989 RMK AO2 $





000
SAUS46 KSGX 160157
MTRSDM
METAR KSDM 160153Z 28008KT 10SM CLR 15/12 A2986 RMK AO2 SLP110
T01500117





000
SAUS46 KSGX 160154
MTRCZZ
METAR KCZZ 160152Z AUTO 25009KT 22/03 A2984 RMK AO1 SLP084 T02170028





000
SAUS46 KSGX 160152
MTRSAN
METAR KSAN 160151Z 30005KT 10SM SCT010 BKN200 17/12 A2988 RMK AO2
SLP117 T01670122 $





000
SAUS46 KSGX 160057
MTRSDM
METAR KSDM 160053Z 29007KT 10SM CLR 18/12 A2985 RMK AO2 SLP106
T01780117





000
SAUS46 KSGX 160053
MTRCZZ
METAR KCZZ 160052Z AUTO 30010KT 24/00 A2984 RMK AO1 SLP082 T02440000





000
SAUS46 KSGX 160052
MTRSAN
METAR KSAN 160051Z 28008KT 10SM FEW012 SCT200 18/12 A2987 RMK AO2
SLP115 T01830117 $





000
SAUS46 KSGX 152355
MTRSDM
METAR KSDM 152353Z VRB04KT 10SM CLR 19/12 A2985 RMK AO2 SLP106
T01940117 10206 20178 56021





000
SAUS46 KSGX 152353
MTRCZZ
METAR KCZZ 152352Z AUTO 28010KT 26/00 A2985 RMK AO1 SLP087 T02560000
10278 20250 56010





000
SAUS46 KSGX 152352
MTRSAN
METAR KSAN 152351Z 29007KT 10SM FEW012 BKN200 19/12 A2987 RMK AO2
SLP114 T01890117 10206 20172 58023 $





000
SAUS46 KSGX 152254
MTRSDM
METAR KSDM 152253Z 29008KT 10SM CLR 19/12 A2988 RMK AO2 SLP115
T01890117





000
SAUS46 KSGX 152253
MTRCZZ
METAR KCZZ 152252Z AUTO 27012G17KT 26/M01 A2986 RMK AO1 SLP088
T02611011





000
SAUS46 KSGX 152252
MTRSAN
METAR KSAN 152251Z 29010KT 10SM FEW012 BKN200 18/12 A2990 RMK AO2
SLP124 T01830117 $





000
SAUS46 KSGX 152156
MTRSDM
METAR KSDM 152153Z 28008KT 10SM CLR 20/12 A2989 RMK AO2 SLP119
T02000122





000
SAUS46 KSGX 152153
MTRCZZ
METAR KCZZ 152152Z AUTO 25018G22KT 26/M01 A2987 RMK AO1 PK WND
25026/2111 SLP090 T02611006





000
SAUS46 KSGX 152152
MTRSAN
METAR KSAN 152151Z 29011KT 10SM FEW012 SCT200 18/12 A2991 RMK AO2
SLP128 T01830117





000
SAUS46 KSGX 152057
MTRSDM
METAR KSDM 152053Z 27008KT 10SM CLR 21/12 A2992 RMK AO2 SLP128
T02060117 58014





000
SAUS46 KSGX 152053
MTRCZZ
METAR KCZZ 152052Z AUTO 23017G23KT 27/00 A2988 RMK AO1 WSHFT 2002
SLP094 T02720000 56022





000
SAUS46 KSGX 152052
MTRSAN
METAR KSAN 152051Z 28012KT 10SM FEW012 SCT200 19/12 A2994 RMK AO2
SLP137 T01940122 58017





000
SAUS46 KSGX 152020
MTRCZZ
SPECI KCZZ 152019Z AUTO 23016G21KT 27/00 A2989 RMK AO1 WSHFT 2002
T02670000





000
SAUS46 KSGX 151954
MTRSDM
METAR KSDM 151953Z 27008KT 10SM CLR 19/12 A2993 RMK AO2 SLP132
T01940117





000
SAUS46 KSGX 151953
MTRCZZ
METAR KCZZ 151952Z AUTO 22008G16KT 27/M05 A2990 RMK AO1 SLP099
T02721050





000
SAUS46 KSGX 151952
MTRSAN
METAR KSAN 151951Z 29009KT 10SM FEW012 SCT200 19/12 A2995 RMK AO2
SLP141 T01940122





000
SAUS46 KSGX 151854
MTRSDM
METAR KSDM 151853Z AUTO 29008KT CLR 19/12 A2996 RMK AO2 SLP142
T01890122





000
SAUS46 KSGX 151853
MTRCZZ
METAR KCZZ 151852Z AUTO 17009KT 340V320 27/M05 A2993 RMK AO1 SLP108
T02671050





000
SAUS46 KSGX 151852
MTRSAN
METAR KSAN 151851Z 29010KT 7SM SCT012 SCT200 18/12 A2998 RMK AO2
SLP153 T01830117





000
SAUS46 KSGX 151754
MTRSDM
METAR KSDM 151753Z AUTO 29009KT 6SM HZ CLR 18/12 A2996 RMK AO2
SLP142 T01830122 10194 20128 55001





000
SAUS46 KSGX 151753
MTRCZZ
METAR KCZZ 151752Z AUTO 26/M04 A2995 RMK AO1 SLP116 T02611044 10261
20033 56010





000
SAUS46 KSGX 151752
MTRSAN
METAR KSAN 151751Z 31007KT 7SM SCT012 BKN200 18/12 A2999 RMK AO2
SLP154 T01780117 10183 20156 53006





000
SAUS46 KSGX 151654
MTRSDM
METAR KSDM 151653Z 31004KT 7SM CLR 18/12 A2996 RMK AO2 SLP141
T01830117





000
SAUS46 KSGX 151653
MTRCZZ
METAR KCZZ 151652Z AUTO 24004KT 23/M05 A2996 RMK AO1 SLP118
T02331050





000
SAUS46 KSGX 151652
MTRSAN
METAR KSAN 151651Z VRB03KT 6SM HZ SCT009 SCT200 17/12 A2998 RMK AO2
SLP152 T01670117





000
SAUS46 KSGX 151646
MTRSAN
SPECI KSAN 151645Z COR 24004KT 6SM HZ SCT009 SCT200 16/12 A2998 RMK
AO2





000
SAUS46 KSGX 151617
MTRSDM
SPECI KSDM 151616Z 34003KT 5SM HZ SCT002 15/12 A2995 RMK AO2
T01500122





000
SAUS46 KSGX 151609
MTRSAN
SPECI KSAN 151608Z 00000KT 4SM HZ OVC007 16/12 A2997 RMK AO2 $





000
SAUS46 KSGX 151601
MTRSDM
SPECI KSDM 151600Z 00000KT 3SM BR BKN002 13/13 A2995 RMK AO2
T01330128





000
SAUS46 KSGX 151559
MTRSDM
SPECI KSDM 151558Z 00000KT 2SM BR OVC002 13/13 A2995 RMK AO2 VIS
3/4V4 T01330128





000
SAUS46 KSGX 151554
MTRSDM
METAR KSDM 151553Z 00000KT 3/4SM BR OVC002 13/13 A2995 RMK AO2
SLP140 T01280128





000
SAUS46 KSGX 151553
MTRCZZ
METAR KCZZ 151552Z AUTO 00000KT 21/M03 A2996 RMK AO1 SLP121
T02061028





000
SAUS46 KSGX 151552
MTRSAN
METAR KSAN 151551Z 00000KT 3SM BR OVC006 16/12 A2997 RMK AO2 SLP149
T01630118 $





000
SAUS46 KSGX 151534
MTRSAN
SPECI KSAN 151533Z 00000KT 3SM BR OVC005 16/13 A2997 RMK AO2 $





000
SAUS46 KSGX 151520
MTRSAN
SPECI KSAN 151518Z 00000KT 2 1/2SM BR OVC004 16/13 A2998 RMK AO2 $





000
SAUS46 KSGX 151454
MTRSDM
METAR KSDM 151453Z 00000KT 1/4SM FG VV002 13/12 A2996 RMK AO2 SLP144
T01280122 50001





000
SAUS46 KSGX 151453
MTRCZZ
METAR KCZZ 151452Z AUTO 05005KT 13/M02 A2999 RMK AO1 SLP131
T01331017 55001





000
SAUS46 KSGX 151452
MTRSAN
METAR KSAN 151451Z 00000KT 2SM BR OVC003 16/14 A2998 RMK AO2 SLP153
T01580138 50000 $





000
SAUS46 KSGX 151356
MTRSDM
METAR KSDM 151353Z AUTO 00000KT 1/4SM FG VV002 13/13 A2997 RMK AO2
SLP147 T01280128





000
SAUS46 KSGX 151353
MTRCZZ
METAR KCZZ 151352Z AUTO 06007KT 06/M03 A2998 RMK AO1 SLP133
T00561033





000
SAUS46 KSGX 151352
MTRSAN
METAR KSAN 151351Z 01003KT 2SM BR OVC003 16/14 A2999 RMK AO2 SLP154
CIG 001V004 T01620135 $





000
SAUS46 KSGX 151257
MTRSDM
METAR KSDM 151253Z AUTO 00000KT 1/4SM FG VV002 13/12 A2996 RMK AO2
SLP143 T01280122





000
SAUS46 KSGX 151253
MTRCZZ
METAR KCZZ 151252Z AUTO 04004KT 06/M03 A2999 RMK AO1 SLP133
T00611028





000
SAUS46 KSGX 151252
MTRSAN
METAR KSAN 151251Z 00000KT 2SM HZ OVC003 15/13 A2999 RMK AO2 SLP154
T01530130 $





000
SAUS46 KSGX 151207
MTRSAN
SPECI KSAN 151206Z 33003KT 2SM BR OVC003 15/13 A2999 RMK AO2 $





000
SAUS46 KSGX 151156
MTRSDM
METAR KSDM 151153Z AUTO 28003KT 1/4SM FG VV001 13/12 A2996 RMK AO2
SLP142 T01280122 10144 20117 58009





000
SAUS46 KSGX 151153
MTRSAN
METAR KSAN 151151Z 33004KT 1 1/2SM BR OVC002 16/13 A2998 RMK AO2
SLP152 T01560134 10178 20156 57007 $





000
SAUS46 KSGX 151153
MTRCZZ
METAR KCZZ 151152Z AUTO 03006KT 04/M03 A2999 RMK AO1 SLP134
T00391028 10111 20039 58015





000
SAUS46 KSGX 151141
MTRSAN
SPECI KSAN 151140Z 30004KT 1 1/2SM BR OVC002 16/13 A2998 RMK AO2 $





000
SAUS46 KSGX 151054
MTRSDM
METAR KSDM 151053Z AUTO 27005KT 1/4SM FG VV001 13/12 A2998 RMK AO2
SLP146 T01280122





000
SAUS46 KSGX 151053
MTRCZZ
METAR KCZZ 151052Z AUTO 06007KT 06/M04 A3001 RMK AO1 SLP139
T00611044





000
SAUS46 KSGX 151052
MTRSAN
METAR KSAN 151051Z 33004KT 1SM R09/P6000FT BR OVC002 16/13 A2999 RMK
AO2 SLP155 T01560134 $





000
SAUS46 KSGX 151049
MTRSAN
SPECI KSAN 151048Z 33005KT 1SM R09/6000VP6000FT BR OVC002 16/13
A2999 RMK AO2 $





000
SAUS46 KSGX 151029
MTRSDM
SPECI KSDM 151026Z AUTO 00000KT 1/4SM FG VV001 12/12 A2998 RMK AO2
T01220117





000
SAUS46 KSGX 151022
MTRSDM
SPECI KSDM 151019Z AUTO 29005KT 1 1/4SM BR FEW002 13/11 A2998 RMK
AO2 T01280111





000
SAUS46 KSGX 150954
MTRSDM
METAR KSDM 150953Z AUTO 28004KT 6SM BR CLR 14/12 A2998 RMK AO2
SLP147 T01390117





000
SAUS46 KSGX 150953
MTRCZZ
METAR KCZZ 150952Z AUTO 05006KT 07/M06 A3002 RMK AO1 SLP143
T00721056





000
SAUS46 KSGX 150952
MTRSAN
METAR KSAN 150951Z 30004KT 1/2SM R09/2800V4500FT FG VV002 16/14
A3000 RMK AO2 SLP159 T01560135 $





000
SAUS46 KSGX 150857
MTRSDM
METAR KSDM 150853Z AUTO 00000KT 10SM CLR 13/11 A2999 RMK AO2 SLP150
T01280106 58018





000
SAUS46 KSGX 150853
MTRCZZ
METAR KCZZ 150852Z AUTO 05007KT 07/M06 A3004 RMK AO1 SLP149
T00721061 58010





000
SAUS46 KSGX 150852
MTRSAN
METAR KSAN 150851Z 32004KT 3/4SM R09/4000VP6000FT BR BKN002 16/14
A3001 RMK AO2 SLP161 T01560139 58015 $





000
SAUS46 KSGX 150811
MTRSAN
SPECI KSAN 150810Z 33005KT 1/2SM R09/2600V5500FT FG BKN002 16/13
A3002 RMK AO2 $





000
SAUS46 KSGX 150804
MTRSAN
SPECI KSAN 150803Z 34004KT 1/4SM R09/2200V5500FT FG OVC002 16/13
A3002 RMK AO2 VIS NE 3/4 E 1 $





000
SAUS46 KSGX 150801
MTRSAN
SPECI KSAN 150759Z 33005KT 2SM R09/2200VP6000FT BR OVC002 16/13
A3003 RMK AO2 VIS S-NW 1/2 $





000
SAUS46 KSGX 150754
MTRSDM
METAR KSDM 150753Z AUTO 00000KT 10SM CLR 14/12 A3001 RMK AO2 SLP160
T01440117 402440111





000
SAUS46 KSGX 150753
MTRCZZ
METAR KCZZ 150752Z AUTO 06007KT 07/M05 A3005 RMK AO1 SLP156
T00721050 402440039





000
SAUS46 KSGX 150752
MTRSAN
METAR KSAN 150751Z 33004KT 3SM R09/3000V5500FT BR BKN004 OVC007
16/14 A3003 RMK AO2 SLP167 VIS S 3/4 SW-W 1/2 NW 3/4 T01610139
402390150 $





000
SAUS46 KSGX 150732
MTRSAN
SPECI KSAN 150731Z 31003KT 6SM R09/2200V5000FT BR BKN004 BKN007
16/14 A3004 RMK AO2 VIS S 3/4 SW-W 1/2 NW 3/4 $





000
SAUS46 KSGX 150713
MTRSAN
SPECI KSAN 150711Z 31003KT 7SM R09/6000VP6000FT SCT004 BKN250 16/13
A3005 RMK AO2 $





000
SAUS46 KSGX 150654
MTRSDM
METAR KSDM 150653Z AUTO 06006KT 8SM CLR 14/12 A3003 RMK AO2 SLP165
T01390122





000
SAUS46 KSGX 150653
MTRCZZ
METAR KCZZ 150652Z AUTO 04003KT 09/M07 A3006 RMK AO1 SLP157
T00941067





000
SAUS46 KSGX 150652
MTRSAN
METAR KSAN 150651Z 35004KT 8SM FEW010 BKN250 17/13 A3005 RMK AO2
SLP174 T01670133 $





000
SAUS46 KSGX 150556
MTRSDM
METAR KSDM 150553Z AUTO 10003KT 7SM CLR 13/12 A3004 RMK AO2 SLP169
T01330122 10222 20128 50005





000
SAUS46 KSGX 150553
MTRCZZ
METAR KCZZ 150552Z AUTO 06006KT 10/M09 A3007 RMK AO1 SLP159
T01001089 10244 20100 50008





000
SAUS46 KSGX 150552
MTRSAN
METAR KSAN 150551Z 00000KT 10SM FEW010 SCT220 18/13 A3005 RMK AO2
SLP177 T01780133 10233 20172 50007 $





000
SAUS46 KSGX 150455
MTRSDM
METAR KSDM 150453Z AUTO 06003KT 9SM CLR 14/13 A3005 RMK AO2 SLP172
T01440128





000
SAUS46 KSGX 150453
MTRCZZ
METAR KCZZ 150452Z AUTO 04004KT 12/M09 A3007 RMK AO1 SLP160
T01171089





000
SAUS46 KSGX 150453
MTRSAN
METAR KSAN 150451Z 00000KT 10SM FEW010 18/13 A3006 RMK AO2 SLP178
T01780133 $





000
SAUS46 KSGX 150429
MTRSDM
SPECI KSDM 150428Z AUTO 00000KT 9SM FEW007 15/13 A3004 RMK AO2
T01500128





000
SAUS46 KSGX 150410
MTRSAN
SPECI KSAN 150409Z 05004KT 10SM SCT010 18/13 A3006 RMK AO2 $





000
SAUS46 KSGX 150354
MTRSDM
METAR KSDM 150353Z 24003KT 9SM OVC007 15/13 A3005 RMK AO2 SLP172
T01500128





000
SAUS46 KSGX 150353
MTRCZZ
METAR KCZZ 150352Z AUTO 34003KT 12/M09 A3007 RMK AO1 SLP158
T01221089





000
SAUS46 KSGX 150352
MTRSAN
METAR KSAN 150351Z 20003KT 10SM BKN010 17/13 A3006 RMK AO2 SLP177
T01720133 $





000
SAUS46 KSGX 150316
MTRSAN
SPECI KSAN 150315Z 21004KT 10SM BKN010 18/14 A3005 RMK AO2 $





000
SAUS46 KSGX 150311
MTRSDM
SPECI KSDM 150310Z 26007KT 8SM BKN006 15/13 A3003 RMK AO2 T01500133





000
SAUS46 KSGX 150254
MTRSDM
METAR KSDM 150253Z 26005KT 9SM FEW006 15/13 A3002 RMK AO2 SLP165
T01500133 53014





000
SAUS46 KSGX 150253
MTRCZZ
METAR KCZZ 150252Z AUTO 04006KT 17/M11 A3004 RMK AO1 SLP145
T01721111 53003





000
SAUS46 KSGX 150252
MTRSAN
METAR KSAN 150251Z 26005KT 10SM FEW020 18/13 A3003 RMK AO2 SLP170
T01830133 53015 $





000
SAUS46 KSGX 150154
MTRSDM
METAR KSDM 150153Z 26007KT 10SM CLR 17/13 A2999 RMK AO2 SLP154
T01670128





000
SAUS46 KSGX 150153
MTRCZZ
METAR KCZZ 150152Z AUTO 07012KT 22/M12 A3002 RMK AO1 SLP137
T02171117





000
SAUS46 KSGX 150152
MTRSAN
METAR KSAN 150151Z 29007KT 10SM CLR 19/13 A3000 RMK AO2 SLP158
T01890128 $





000
SAUS46 KSGX 150056
MTRSDM
METAR KSDM 150053Z 24009KT 10SM CLR 19/12 A2998 RMK AO2 SLP150
T01890122





000
SAUS46 KSGX 150053
MTRCZZ
METAR KCZZ 150052Z AUTO 07012KT 23/M11 A3002 RMK AO1 SLP137
T02331111





000
SAUS46 KSGX 150052
MTRSAN
METAR KSAN 150051Z 30008KT 10SM CLR 21/12 A2998 RMK AO2 SLP153
T02060122





000
SAUS46 KSGX 142354
MTRSDM
METAR KSDM 142353Z AUTO 25009KT 10SM CLR 22/12 A2998 RMK AO2 SLP150
T02220122 10244 20222 58009





000
SAUS46 KSGX 142353
MTRCZZ
METAR KCZZ 142352Z AUTO 06012KT 24/M11 A3003 RMK AO1 SLP140
T02441111 10244 20211 58010





000
SAUS46 KSGX 142352
MTRSAN
METAR KSAN 142351Z 29008KT 10SM CLR 23/12 A2999 RMK AO2 SLP155
T02330117 10239 20194 58013





000
SAUS46 KSGX 142254
MTRSDM
METAR KSDM 142253Z 27010KT 10SM CLR 23/11 A2999 RMK AO2 SLP152
T02330111





000
SAUS46 KSGX 142253
MTRCZZ
METAR KCZZ 142252Z AUTO 07012G23KT 24/M10 A3004 RMK AO1 SLP150
T02441100





000
SAUS46 KSGX 142252
MTRSAN
METAR KSAN 142251Z 30012G15KT 10SM CLR 23/12 A3001 RMK AO2 SLP160
T02280122





000
SAUS46 KSGX 142156
MTRSDM
METAR KSDM 142153Z 28008KT 10SM CLR 23/11 A3001 RMK AO2 SLP158
T02330111





000
SAUS46 KSGX 142154
MTRSAN
METAR KSAN 142151Z 30011KT 10SM CLR 22/12 A3002 RMK AO2 SLP166
T02170117





000
SAUS46 KSGX 142153
MTRCZZ
METAR KCZZ 142152Z AUTO 07013G22KT 24/M09 A3006 RMK AO1 PK WND
07027/2103 SLP159 T02391094





000
SAUS46 KSGX 142056
MTRSDM
METAR KSDM 142053Z 27011KT 250V310 10SM CLR 24/11 A3001 RMK AO2
SLP158 T02390111 56002





000
SAUS46 KSGX 142053
MTRCZZ
METAR KCZZ 142052Z AUTO 06017G29KT 23/M09 A3006 RMK AO1 PK WND
07030/1953 SLP160 T02331089 56003





000
SAUS46 KSGX 142052
MTRSAN
METAR KSAN 142051Z 31011KT 10SM CLR 21/12 A3003 RMK AO2 SLP168
T02110122 58003





000
SAUS46 KSGX 141954
MTRSDM
METAR KSDM 141953Z 29007G15KT 10SM CLR 23/12 A3001 RMK AO2 SLP159
T02330117





000
SAUS46 KSGX 141953
MTRCZZ
METAR KCZZ 141952Z AUTO 08023G32KT 23/M09 A3006 RMK AO1 PK WND
06034/1911 SLP158 T02281094





000
SAUS46 KSGX 141952
MTRSAN
METAR KSAN 141951Z 30012KT 10SM CLR 20/12 A3003 RMK AO2 SLP169
T02000117





000
SAUS46 KSGX 141854
MTRSDM
METAR KSDM 141853Z 27009KT 10SM CLR 23/11 A3001 RMK AO2 SLP159
T02330111





000
SAUS46 KSGX 141853
MTRCZZ
METAR KCZZ 141852Z AUTO 07026G33KT 22/M10 A3007 RMK AO1 PK WND
06037/1754 SLP162 T02221100





000
SAUS46 KSGX 141852
MTRSAN
METAR KSAN 141851Z 30011KT 10SM CLR 21/11 A3004 RMK AO2 SLP171
T02110111





000
SAUS46 KSGX 141756
MTRSDM
METAR KSDM 141753Z 31004KT 10SM CLR 22/09 A3002 RMK AO2 SLP160
T02220094 10228 20111 55003





000
SAUS46 KSGX 141753
MTRCZZ
METAR KCZZ 141752Z AUTO 07027G36KT 21/M11 A3007 RMK AO1 PK WND
07042/1719 SLP164 T02111111 10211 20150 53011





000
SAUS46 KSGX 141752
MTRSAN
METAR KSAN 141751Z 31008KT 10SM CLR 21/11 A3004 RMK AO2 SLP170
T02060106 10206 20150 56005





000
SAUS46 KSGX 141654
MTRSDM
METAR KSDM 141653Z 34004KT 10SM CLR 19/10 A3001 RMK AO2 SLP160
T01940100





000
SAUS46 KSGX 141653
MTRCZZ
METAR KCZZ 141652Z AUTO 06025G37KT 21/M11 A3006 RMK AO1 PK WND
06043/1627 SLP160 T02061106





000
SAUS46 KSGX 141652
MTRSAN
METAR KSAN 141651Z 32009KT 10SM CLR 19/10 A3004 RMK AO2 SLP170
T01890100





000
SAUS46 KSGX 141557
MTRSDM
METAR KSDM 141553Z 32004KT 10SM CLR 17/11 A3002 RMK AO2 SLP163
T01720106





000
SAUS46 KSGX 141553
MTRCZZ
METAR KCZZ 141552Z AUTO 06025G37KT 20/M08 A3005 RMK AO1 PK WND
06037/1500 SLP154 T02001078





000
SAUS46 KSGX 141552
MTRSAN
METAR KSAN 141551Z 33008KT 10SM CLR 18/10 A3004 RMK AO2 SLP172
T01780100





000
SAUS46 KSGX 141453
MTRCZZ
METAR KCZZ 141452Z AUTO 05026G37KT 19/M07 A3004 RMK AO1 PK WND
06037/1450 SLP150 T01891072 53021





000
SAUS46 KSGX 141452
MTRSAN
METAR KSAN 141451Z 34005KT 10SM CLR 16/10 A3005 RMK AO2 SLP175
T01610100 51016





000
SAUS46 KSGX 141354
MTRSDM
METAR KSDM 141353Z AUTO 00000KT 10SM CLR 12/09 A3001 RMK AO2 SLP160
T01170089





000
SAUS46 KSGX 141353
MTRCZZ
METAR KCZZ 141352Z AUTO 05020G31KT 17/M06 A3001 RMK AO1 PK WND
06032/1258 SLP140 T01721056





000
SAUS46 KSGX 141352
MTRSAN
METAR KSAN 141351Z 35005KT 10SM FEW020 15/10 A3003 RMK AO2 SLP169
T01500100





000
SAUS46 KSGX 141254
MTRSDM
METAR KSDM 141253Z AUTO 04003KT 10SM CLR 12/09 A3000 RMK AO2 SLP157
T01170089





000
SAUS46 KSGX 141253
MTRCZZ
METAR KCZZ 141252Z AUTO 05022G27KT 17/M05 A2998 RMK AO1 PK WND
05028/1201 SLP128 T01721050





000
SAUS46 KSGX 141252
MTRSAN
METAR KSAN 141251Z 34005KT 10SM SCT020 SCT200 16/11 A3002 RMK AO2
SLP166 T01560111





000
SAUS46 KSGX 141208
MTRSAN
SPECI KSAN 141207Z 33005KT 10SM SCT020 SCT200 16/11 A3001 RMK AO2





000
SAUS46 KSGX 141157
MTRSDM
METAR KSDM 141153Z AUTO 00000KT 10SM CLR 12/09 A2999 RMK AO2 SLP152
T01220089 10144 20122 56006





000
SAUS46 KSGX 141153
MTRCZZ
METAR KCZZ 141152Z AUTO 06013KT 15/02 A2997 RMK AO1 SLP125 T01500017
10150 20039 56004





000
SAUS46 KSGX 141152
MTRSAN
METAR KSAN 141151Z 33006KT 10SM BKN020 16/11 A3000 RMK AO2 SLP160
T01610111 10167 20161 56008





000
SAUS46 KSGX 141055
MTRSDM
METAR KSDM 141053Z AUTO 30003KT 10SM CLR 13/09 A2999 RMK AO2 SLP152
T01330094





000
SAUS46 KSGX 141053
MTRCZZ
METAR KCZZ 141052Z AUTO 04003KT 06/04 A2997 RMK AO1 SLP132 T00560039





000
SAUS46 KSGX 141052
MTRSAN
METAR KSAN 141051Z 34004KT 10SM OVC022 17/10 A3001 RMK AO2 SLP162
T01670100





000
SAUS46 KSGX 141013
MTRSDM
SPECI KSDM 141011Z AUTO 00000KT 10SM SCT019 14/09 A2999 RMK AO2
T01390094





000
SAUS46 KSGX 140954
MTRSDM
METAR KSDM 140953Z AUTO 00000KT 10SM OVC019 14/09 A2999 RMK AO2
SLP153 T01390094





000
SAUS46 KSGX 140953
MTRCZZ
METAR KCZZ 140952Z AUTO 02003KT 05/03 A2998 RMK AO1 SLP135 T00500033





000
SAUS46 KSGX 140952
MTRSAN
METAR KSAN 140951Z 33004KT 10SM OVC022 17/11 A3001 RMK AO2 SLP160
T01670106





000
SAUS46 KSGX 140854
MTRSDM
METAR KSDM 140853Z AUTO 35003KT 10SM OVC020 14/09 A3000 RMK AO2
SLP158 T01440094 58009





000
SAUS46 KSGX 140853
MTRCZZ
METAR KCZZ 140852Z AUTO 00000KT 05/04 A2998 RMK AO1 SLP137 T00500039
58004





000
SAUS46 KSGX 140852
MTRSAN
METAR KSAN 140851Z 34006KT 10SM OVC026 16/11 A3003 RMK AO2 SLP167
T01610106 58008





000
SAUS46 KSGX 140755
MTRSDM
METAR KSDM 140753Z AUTO 00000KT 10SM OVC021 14/09 A3002 RMK AO2
SLP164 T01440094 401890133





000
SAUS46 KSGX 140753
MTRCZZ
METAR KCZZ 140752Z AUTO 07005KT 08/07 A3000 RMK AO1 SLP139 T00780067
402000050





000
SAUS46 KSGX 140752
MTRSAN
METAR KSAN 140751Z 34006KT 10SM OVC026 17/10 A3004 RMK AO2 SLP172
T01670100 401890161





000
SAUS46 KSGX 140654
MTRSDM
METAR KSDM 140653Z AUTO 00000KT 6SM HZ OVC020 14/09 A3003 RMK AO2
SLP166 T01440094





000
SAUS46 KSGX 140653
MTRCZZ
METAR KCZZ 140652Z AUTO 00000KT 07/05 A3000 RMK AO1 SLP142 T00670050





000
SAUS46 KSGX 140652
MTRSAN
METAR KSAN 140651Z 36006KT 10SM OVC026 17/09 A3005 RMK AO2 SLP175
T01670094





000
SAUS46 KSGX 140557
MTRSDM
METAR KSDM 140553Z AUTO 30004KT 10SM OVC019 14/09 A3003 RMK AO2
SLP168 T01440094 10161 20139 51014





000
SAUS46 KSGX 140553
MTRCZZ
METAR KCZZ 140552Z AUTO 03004KT 06/04 A3000 RMK AO1 SLP144 T00610044
10172 20056 51015





000
SAUS46 KSGX 140552
MTRSAN
METAR KSAN 140551Z 32007KT 10SM OVC026 17/09 A3005 RMK AO2 SLP175
T01670094 10183 20161 51014





000
SAUS46 KSGX 140454
MTRSDM
METAR KSDM 140453Z AUTO 30003KT 10SM OVC022 14/09 A3002 RMK AO2
SLP165 T01440094





000
SAUS46 KSGX 140453
MTRCZZ
METAR KCZZ 140452Z AUTO 03003KT 07/04 A2999 RMK AO1 SLP141 T00670044





000
SAUS46 KSGX 140452
MTRSAN
METAR KSAN 140451Z 31007KT 10SM OVC026 17/09 A3005 RMK AO2 SLP174
T01670094





000
SAUS46 KSGX 140406
MTRSAN
SPECI KSAN 140404Z 32006KT 10SM OVC028 17/09 A3004 RMK AO2





000
SAUS46 KSGX 140354
MTRSDM
METAR KSDM 140353Z AUTO 28004KT 10SM OVC021 14/09 A3001 RMK AO2
SLP162 T01440094





000
SAUS46 KSGX 140353
MTRCZZ
METAR KCZZ 140352Z AUTO 20004KT 10/08 A2997 RMK AO1 SLP135 T01000078





000
SAUS46 KSGX 140352
MTRSAN
METAR KSAN 140351Z 31004KT 10SM OVC030 17/09 A3003 RMK AO2 SLP170
T01670094





000
SAUS46 KSGX 140254
MTRSDM
METAR KSDM 140253Z 28007KT 10SM OVC025 14/09 A2999 RMK AO2 SLP154
T01440094 53005





000
SAUS46 KSGX 140253
MTRCZZ
METAR KCZZ 140252Z AUTO 22006KT 11/08 A2995 RMK AO1 SLP127 T01110078
53012





000
SAUS46 KSGX 140252
MTRSAN
METAR KSAN 140251Z 32006KT 10SM OVC032 17/09 A3001 RMK AO2 SLP162
T01670094 53003





000
SAUS46 KSGX 140154
MTRSDM
METAR KSDM 140153Z 27008KT 10SM OVC028 14/09 A2998 RMK AO2 SLP150
T01440094





000
SAUS46 KSGX 140153
MTRCZZ
METAR KCZZ 140152Z AUTO 22013KT 13/08 A2993 RMK AO1 SLP119 T01330083





000
SAUS46 KSGX 140152
MTRSAN
METAR KSAN 140151Z 30007KT 10SM FEW025 OVC034 17/10 A3000 RMK AO2
SLP159 T01670100





000
SAUS46 KSGX 140105
MTRSDM
SPECI KSDM 140102Z 30007KT 10SM OVC029 15/09 A2997 RMK AO2 T01500094





000
SAUS46 KSGX 140054
MTRSDM
METAR KSDM 140053Z 29007KT 10SM OVC030 16/09 A2997 RMK AO2 SLP148
T01560094





000
SAUS46 KSGX 140053
MTRCZZ
METAR KCZZ 140052Z AUTO 22013KT 16/08 A2992 RMK AO1 SLP114 T01560083





000
SAUS46 KSGX 140052
MTRSAN
METAR KSAN 140051Z 31008KT 10SM FEW025 OVC034 17/10 A3000 RMK AO2
SLP157 T01720100





000
SAUS46 KSGX 140051
MTRSDM
SPECI KSDM 140050Z 30007KT 10SM OVC030 16/09 A2998 RMK AO2





000
SAUS46 KSGX 140023
MTRSDM
SPECI KSDM 140021Z 29008KT 260V320 10SM FEW023 OVC029 16/09 A2998
RMK AO2 T01560089





000
SAUS46 KSGX 132355
MTRSDM
METAR KSDM 132353Z 27010KT 10SM OVC030 16/09 A2998 RMK AO2 SLP151
T01610094 10189 20156 56008





000
SAUS46 KSGX 132354
MTRCZZ
METAR KCZZ 132352Z AUTO 21016KT 17/08 A2991 RMK AO1 SLP111 T01670078
10200 20139 56008





000
SAUS46 KSGX 132352
MTRSAN
METAR KSAN 132351Z 31007KT 10SM FEW026 BKN038 18/09 A3000 RMK AO2
SLP158 T01830089 10189 20167 56011





000
SAUS46 KSGX 132254
MTRSDM
METAR KSDM 132253Z 27011KT 10SM FEW023 OVC032 17/09 A2999 RMK AO2
SLP152 T01670094





000
SAUS46 KSGX 132253
MTRCZZ
METAR KCZZ 132252Z AUTO 22016G20KT 18/08 A2991 RMK AO1 SLP110
T01830078





000
SAUS46 KSGX 132252
MTRSAN
METAR KSAN 132251Z 28009KT 10SM FEW025 SCT035 18/09 A3001 RMK AO2
SLP160 T01830089





000
SAUS46 KSGX 132157
MTRSDM
METAR KSDM 132153Z 29008G16KT 10SM FEW025 OVC031 17/09 A3000 RMK AO2
SLP156 T01720094





000
SAUS46 KSGX 132153
MTRCZZ
METAR KCZZ 132152Z AUTO 24017G25KT 18/07 A2992 RMK AO1 SLP112
T01830072





000
SAUS46 KSGX 132152
MTRSAN
METAR KSAN 132151Z 29010KT 10SM SCT023 BKN035 18/09 A3002 RMK AO2
SLP166 T01780089





000
SAUS46 KSGX 132128
MTRSDM
SPECI KSDM 132125Z 28011G15KT 10SM FEW026 OVC031 17/09 A3000 RMK AO2
T01720094





000
SAUS46 KSGX 132054
MTRSDM
METAR KSDM 132053Z 30007G14KT 10SM BKN026 OVC032 17/09 A3001 RMK AO2
SLP159 T01720089 58004





000
SAUS46 KSGX 132053
MTRCZZ
METAR KCZZ 132052Z AUTO 26010G19KT 18/06 A2994 RMK AO1 SLP118
T01830061 56004





000
SAUS46 KSGX 132052
MTRSAN
METAR KSAN 132051Z 29011KT 10SM SCT023 BKN037 18/09 A3003 RMK AO2
SLP169 T01780094 58004





000
SAUS46 KSGX 131954
MTRSDM
METAR KSDM 131953Z 26009G14KT 10SM BKN029 18/08 A3001 RMK AO2 SLP160
T01830083





000
SAUS46 KSGX 131953
MTRCZZ
METAR KCZZ 131952Z AUTO 22018KT 17/06 A2994 RMK AO1 PK WND
24027/1924 SLP119 T01720061





000
SAUS46 KSGX 131952
MTRSAN
METAR KSAN 131951Z 25007KT 10SM SCT027 OVC037 18/09 A3004 RMK AO2
SLP171 T01780094





    US Dept of Commerce
    National Oceanic and Atmospheric Administration
    National Weather Service
    1325 East West Highway
    Silver Spring, MD 20910
    Page Author: NWS Internet Services Team
Disclaimer
Information Quality
Credits
Glossary
Privacy Policy
Freedom of Information Act (FOIA)
About Us
Career Opportunities